createdAt,value
2019-04-25T00:02:42.299Z,83.73
2019-04-25T00:05:12.235Z,82.77
2019-04-25T00:07:42.439Z,83.74
2019-04-25T00:10:13.922Z,83.53
2019-04-25T00:12:43.349Z,83.61
2019-04-25T00:15:13.261Z,83.56
2019-04-25T00:17:43.283Z,83.25
2019-04-25T00:20:16.032Z,83.08
2019-04-25T00:22:51.562Z,82.94
2019-04-25T00:25:31.898Z,83.16
2019-04-25T00:28:06.971Z,83.78
2019-04-25T00:30:44.412Z,83.10
2019-04-25T00:33:13.884Z,83.92
2019-04-25T00:35:44.564Z,84.73
2019-04-25T00:38:13.308Z,85.04
2019-04-25T00:40:43.530Z,85.13
2019-04-25T00:43:13.217Z,84.29
2019-04-25T00:45:43.621Z,84.87
2019-04-25T00:48:15.718Z,85.53
2019-04-25T00:50:46.257Z,85.74
2019-04-25T00:53:15.299Z,85.52
2019-04-25T00:55:44.356Z,84.63
2019-04-25T00:58:22.999Z,84.46
2019-04-25T01:01:04.406Z,85.65
2019-04-25T01:03:36.217Z,85.49
2019-04-25T01:06:04.796Z,85.20
2019-04-25T01:08:35.163Z,86.14
2019-04-25T01:11:05.300Z,86.75
2019-04-25T01:13:34.032Z,85.77
2019-04-25T01:16:04.261Z,85.20
2019-04-25T01:18:33.739Z,85.18
2019-04-25T01:21:02.358Z,85.26
2019-04-25T01:23:31.225Z,85.86
2019-04-25T01:25:59.953Z,86.43
2019-04-25T01:28:31.568Z,86.57
2019-04-25T01:31:00.752Z,87.20
2019-04-25T01:33:29.308Z,87.54
2019-04-25T01:36:18.812Z,87.87
2019-04-25T01:38:56.646Z,87.72
2019-04-25T01:41:45.344Z,87.20
2019-04-25T01:44:19.905Z,87.04
2019-04-25T01:46:54.504Z,87.68
2019-04-25T01:49:24.013Z,87.91
2019-04-25T01:51:57.184Z,87.59
2019-04-25T01:54:25.673Z,87.64
2019-04-25T01:56:57.316Z,87.09
2019-04-25T01:59:26.364Z,86.90
2019-04-25T02:01:57.250Z,86.78
2019-04-25T02:04:26.263Z,85.90
2019-04-25T02:06:55.694Z,85.99
2019-04-25T02:09:26.393Z,86.75
2019-04-25T02:12:03.368Z,86.64
2019-04-25T02:14:35.844Z,87.16
2019-04-25T02:17:06.104Z,88.05
2019-04-25T02:19:35.714Z,87.72
2019-04-25T02:22:04.853Z,87.43
2019-04-25T02:24:35.147Z,87.98
2019-04-25T02:27:04.718Z,88.01
2019-04-25T02:29:33.745Z,88.15
2019-04-25T02:32:08.859Z,87.81
2019-04-25T02:34:35.052Z,86.42
2019-04-25T02:37:09.471Z,85.88
2019-04-25T02:39:37.340Z,85.95
2019-04-25T02:42:08.630Z,86.29
2019-04-25T02:44:44.530Z,86.50
2019-04-25T02:47:21.756Z,86.76
2019-04-25T02:50:07.561Z,86.97
2019-04-25T02:52:39.824Z,86.98
2019-04-25T02:55:28.127Z,86.49
2019-04-25T02:57:45.035Z,86.49
2019-04-25T03:00:24.648Z,86.05
2019-04-25T03:02:59.090Z,85.94
2019-04-25T03:05:31.678Z,86.12
2019-04-25T03:08:01.532Z,86.17
2019-04-25T03:10:30.949Z,85.58
2019-04-25T03:13:02.032Z,85.92
2019-04-25T03:15:31.450Z,86.34
2019-04-25T03:18:00.422Z,86.63
2019-04-25T03:20:35.607Z,87.31
2019-04-25T03:23:14.231Z,87.77
2019-04-25T03:25:43.472Z,87.70
2019-04-25T03:28:13.793Z,87.54
2019-04-25T03:30:45.077Z,87.12
2019-04-25T03:33:19.378Z,87.04
2019-04-25T03:35:44.784Z,87.37
2019-04-25T03:38:17.504Z,86.84
2019-04-25T03:40:47.800Z,86.15
2019-04-25T03:43:23.303Z,85.94
2019-04-25T03:45:53.491Z,85.46
2019-04-25T03:48:25.100Z,85.60
2019-04-25T03:51:15.433Z,85.50
2019-04-25T03:53:43.845Z,85.09
2019-04-25T03:56:14.661Z,85.33
2019-04-25T03:58:44.013Z,85.01
2019-04-25T04:01:13.811Z,85.15
2019-04-25T04:03:44.327Z,85.38
2019-04-25T04:06:15.275Z,85.38
2019-04-25T04:08:44.789Z,85.13
2019-04-25T04:11:15.790Z,85.13
2019-04-25T04:13:45.786Z,85.75
2019-04-25T04:16:19.029Z,85.85
2019-04-25T04:18:51.089Z,85.80
2019-04-25T04:21:26.352Z,86.30
2019-04-25T04:24:17.909Z,86.06
2019-04-25T04:27:07.945Z,85.72
2019-04-25T04:29:37.003Z,84.96
2019-04-25T04:32:06.189Z,79.17
2019-04-25T04:34:36.034Z,73.53
2019-04-25T04:37:04.619Z,70.40
2019-04-25T04:39:33.956Z,67.54
2019-04-25T04:42:03.820Z,65.95
2019-04-25T04:44:34.341Z,66.09
2019-04-25T04:47:04.366Z,65.54
2019-04-25T04:49:34.210Z,65.29
2019-04-25T04:52:06.547Z,63.48
2019-04-25T04:54:35.440Z,63.56
2019-04-25T04:57:18.439Z,62.94
2019-04-25T04:59:37.203Z,62.77
2019-04-25T05:02:26.205Z,60.65
2019-04-25T05:05:24.400Z,61.78
2019-04-25T05:07:58.148Z,62.21
2019-04-25T05:10:28.767Z,63.83
2019-04-25T05:12:57.351Z,64.89
2019-04-25T05:15:29.746Z,68.12
2019-04-25T05:17:58.505Z,70.32
2019-04-25T05:20:27.659Z,70.57
2019-04-25T05:22:56.732Z,69.20
2019-04-25T05:25:26.822Z,71.07
2019-04-25T05:28:02.490Z,71.09
2019-04-25T05:30:37.601Z,72.43
2019-04-25T05:33:06.508Z,71.06
2019-04-25T05:35:38.200Z,70.76
2019-04-25T05:38:11.424Z,70.55
2019-04-25T05:40:53.909Z,71.83
2019-04-25T05:43:25.820Z,69.44
2019-04-25T05:45:56.708Z,69.06
2019-04-25T05:48:26.219Z,67.01
2019-04-25T05:50:54.893Z,67.88
2019-04-25T05:53:24.230Z,69.85
2019-04-25T05:55:55.419Z,68.54
2019-04-25T05:58:27.296Z,69.64
2019-04-25T06:00:56.451Z,69.30
2019-04-25T06:03:27.617Z,70.15
2019-04-25T06:06:03.250Z,70.13
2019-04-25T06:08:41.432Z,67.08
2019-04-25T06:11:17.955Z,63.49
2019-04-25T06:14:03.947Z,68.53
2019-04-25T06:16:37.357Z,69.63
2019-04-25T06:19:20.820Z,67.45
2019-04-25T06:21:51.363Z,67.92
2019-04-25T06:24:45.338Z,66.92
2019-04-25T06:27:27.131Z,66.72
2019-04-25T06:30:00.928Z,66.26
2019-04-25T06:32:29.169Z,64.37
2019-04-25T06:34:58.076Z,65.27
2019-04-25T06:37:27.067Z,66.16
2019-04-25T06:39:55.973Z,64.17
2019-04-25T06:42:27.828Z,61.24
2019-04-25T06:45:03.662Z,57.79
2019-04-25T06:47:45.218Z,57.13
2019-04-25T06:50:15.705Z,58.01
2019-04-25T06:52:47.425Z,57.75
2019-04-25T06:55:16.619Z,57.08
2019-04-25T06:57:45.178Z,57.30
2019-04-25T07:00:16.398Z,57.00
2019-04-25T07:02:49.545Z,55.81
2019-04-25T07:05:28.982Z,55.91
2019-04-25T07:07:53.390Z,55.73
2019-04-25T07:10:24.171Z,55.65
2019-04-25T07:12:54.377Z,56.48
2019-04-25T07:15:25.632Z,56.37
2019-04-25T07:17:54.660Z,57.30
2019-04-25T07:20:27.092Z,56.10
2019-04-25T07:22:56.762Z,56.75
2019-04-25T07:25:28.559Z,55.06
2019-04-25T07:28:23.935Z,54.88
2019-04-25T07:31:13.299Z,53.53
2019-04-25T07:34:04.754Z,51.87
2019-04-25T07:36:34.792Z,52.37
2019-04-25T07:39:10.393Z,51.81
2019-04-25T07:41:38.523Z,50.37
2019-04-25T07:44:08.579Z,52.13
2019-04-25T07:46:39.904Z,48.41
2019-04-25T07:49:13.367Z,49.51
2019-04-25T07:51:45.417Z,48.56
2019-04-25T07:54:17.553Z,45.96
2019-04-25T07:56:54.773Z,46.70
2019-04-25T07:59:27.498Z,47.43
2019-04-25T08:01:56.858Z,46.20
2019-04-25T08:04:27.779Z,45.33
2019-04-25T08:06:58.126Z,45.70
2019-04-25T08:09:27.372Z,43.89
2019-04-25T08:11:56.758Z,43.83
2019-04-25T08:14:47.458Z,45.70
2019-04-25T08:17:19.097Z,45.56
2019-04-25T08:19:49.210Z,45.23
2019-04-25T08:22:23.402Z,43.85
2019-04-25T08:24:51.948Z,43.86
2019-04-25T08:27:23.176Z,44.88
2019-04-25T08:29:54.252Z,46.26
2019-04-25T08:32:27.120Z,44.28
2019-04-25T08:34:56.014Z,43.53
2019-04-25T08:37:24.945Z,43.73
2019-04-25T08:39:53.989Z,44.47
2019-04-25T08:42:24.298Z,43.67
2019-04-25T08:44:54.355Z,43.59
2019-04-25T08:47:24.300Z,42.92
2019-04-25T08:50:03.694Z,41.68
2019-04-25T08:52:34.794Z,41.04
2019-04-25T08:55:10.822Z,39.89
2019-04-25T08:58:07.851Z,41.27
2019-04-25T09:01:00.766Z,40.66
2019-04-25T09:03:32.341Z,40.76
2019-04-25T09:06:03.386Z,40.45
2019-04-25T09:08:33.040Z,40.90
2019-04-25T09:11:03.509Z,40.40
2019-04-25T09:13:33.034Z,40.71
2019-04-25T09:16:03.596Z,39.41
2019-04-25T09:18:34.959Z,40.67
2019-04-25T09:21:07.506Z,39.30
2019-04-25T09:23:37.948Z,41.50
2019-04-25T09:26:06.757Z,40.18
2019-04-25T09:28:38.056Z,39.51
2019-04-25T09:31:08.421Z,40.98
2019-04-25T09:33:37.199Z,40.99
2019-04-25T09:36:06.894Z,40.78
2019-04-25T09:38:36.869Z,39.77
2019-04-25T09:41:05.894Z,41.48
2019-04-25T09:43:35.762Z,38.77
2019-04-25T09:46:09.667Z,39.63
2019-04-25T09:49:18.494Z,37.78
2019-04-25T09:51:53.593Z,39.51
2019-04-25T09:54:33.828Z,37.25
2019-04-25T09:57:28.596Z,37.88
2019-04-25T09:59:57.672Z,39.86
2019-04-25T10:02:28.145Z,38.95
2019-04-25T10:05:00.595Z,38.65
2019-04-25T10:07:29.147Z,39.43
2019-04-25T10:09:57.702Z,39.09
2019-04-25T10:12:27.936Z,38.03
2019-04-25T10:15:06.356Z,37.84
2019-04-25T10:17:35.340Z,37.98
2019-04-25T10:20:07.215Z,37.54
2019-04-25T10:22:35.788Z,37.58
2019-04-25T10:25:04.780Z,36.69
2019-04-25T10:27:33.766Z,36.66
2019-04-25T10:30:16.071Z,35.86
2019-04-25T10:32:33.545Z,36.03
2019-04-25T10:35:05.904Z,36.02
2019-04-25T10:37:35.345Z,33.94
2019-04-25T10:40:07.769Z,34.12
2019-04-25T10:42:36.338Z,33.88
2019-04-25T10:45:05.590Z,34.37
2019-04-25T10:47:35.337Z,33.61
2019-04-25T10:50:04.587Z,33.60
2019-04-25T10:52:33.797Z,34.32
2019-04-25T10:55:04.239Z,34.97
2019-04-25T10:57:33.978Z,33.80
2019-04-25T11:00:07.455Z,34.07
2019-04-25T11:02:33.962Z,34.05
2019-04-25T11:05:10.423Z,33.17
2019-04-25T11:07:39.737Z,32.88
2019-04-25T11:10:09.141Z,32.94
2019-04-25T11:12:41.507Z,31.55
2019-04-25T11:15:11.241Z,31.07
2019-04-25T11:17:39.973Z,32.24
2019-04-25T11:20:14.178Z,32.72
2019-04-25T11:22:44.752Z,32.75
2019-04-25T11:25:14.990Z,33.54
2019-04-25T11:27:46.639Z,33.65
2019-04-25T11:30:14.809Z,32.41
2019-04-25T11:32:45.105Z,32.13
2019-04-25T11:35:14.057Z,32.45
2019-04-25T11:37:43.917Z,32.47
2019-04-25T11:40:28.707Z,31.51
2019-04-25T11:42:57.617Z,31.70
2019-04-25T11:45:26.177Z,32.68
2019-04-25T11:47:56.414Z,33.30
2019-04-25T12:17:23.538Z,31.11
2019-04-25T12:19:54.598Z,31.83
2019-04-25T12:22:27.094Z,31.40
2019-04-25T12:24:55.797Z,30.56
2019-04-25T12:27:25.947Z,30.87
2019-04-25T12:29:54.890Z,31.19
2019-04-25T12:32:24.906Z,30.27
2019-04-25T12:34:56.875Z,31.81
2019-04-25T12:37:25.763Z,31.22
2019-04-25T12:39:54.325Z,30.65
2019-04-25T12:42:24.453Z,29.93
2019-04-25T12:45:08.931Z,29.67
2019-04-25T12:47:41.080Z,29.38
2019-04-25T12:50:14.326Z,28.58
2019-04-25T12:52:44.549Z,30.49
2019-04-25T12:55:14.684Z,32.43
2019-04-25T12:57:43.393Z,29.85
2019-04-25T13:00:19.055Z,31.65
2019-04-25T13:02:49.077Z,30.48
2019-04-25T13:05:17.705Z,31.49
2019-04-25T13:07:46.253Z,30.63
2019-04-25T13:10:16.169Z,31.24
2019-04-25T13:12:46.287Z,31.31
2019-04-25T13:15:18.893Z,31.88
2019-04-25T13:17:47.443Z,31.30
2019-04-25T13:20:16.242Z,31.23
2019-04-25T13:22:45.131Z,29.75
2019-04-25T13:25:18.288Z,30.78
2019-04-25T13:28:08.450Z,29.61
2019-04-25T13:31:04.063Z,30.69
2019-04-25T13:33:39.283Z,30.09
2019-04-25T13:36:10.672Z,30.59
2019-04-25T13:38:39.204Z,30.64
2019-04-25T13:41:07.779Z,31.00
2019-04-25T13:43:36.359Z,31.40
2019-04-25T13:46:05.264Z,32.31
2019-04-25T13:48:34.716Z,32.14
2019-04-25T13:51:05.759Z,34.11
2019-04-25T13:53:34.311Z,34.37
2019-04-25T13:56:04.744Z,34.91
2019-04-25T13:58:36.882Z,35.26
2019-04-25T14:01:12.795Z,35.55
2019-04-25T14:03:42.081Z,35.50
2019-04-25T14:06:10.629Z,36.76
2019-04-25T14:08:41.002Z,35.29
2019-04-25T14:11:11.517Z,37.57
2019-04-25T14:13:40.465Z,36.42
2019-04-25T14:16:26.788Z,34.34
2019-04-25T14:19:07.991Z,34.70
2019-04-25T14:21:36.540Z,34.27
2019-04-25T14:24:05.199Z,35.31
2019-04-25T14:26:33.766Z,34.47
2019-04-25T14:29:04.107Z,34.62
2019-04-25T14:31:43.247Z,35.42
2019-04-25T14:34:08.384Z,33.08
2019-04-25T14:36:36.962Z,33.73
2019-04-25T14:39:06.367Z,34.32
2019-04-25T14:41:34.923Z,35.84
2019-04-25T14:44:05.130Z,32.82
2019-04-25T14:46:35.856Z,32.22
2019-04-25T14:49:04.630Z,33.78
2019-04-25T14:51:33.361Z,33.72
2019-04-25T14:54:07.623Z,34.06
2019-04-25T14:56:45.456Z,34.07
2019-04-25T14:59:14.401Z,34.88
2019-04-25T15:01:44.792Z,34.59
2019-04-25T15:04:13.249Z,34.86
2019-04-25T15:06:41.816Z,35.29
2019-04-25T15:09:14.165Z,34.22
2019-04-25T15:11:47.194Z,34.86
2019-04-25T15:14:17.299Z,34.72
2019-04-25T15:16:47.452Z,33.72
2019-04-25T15:19:16.158Z,33.95
2019-04-25T15:21:45.070Z,33.60
2019-04-25T15:24:13.625Z,34.42
2019-04-25T15:26:45.695Z,34.20
2019-04-25T15:29:17.687Z,34.27
2019-04-25T15:31:55.758Z,34.04
2019-04-25T15:34:18.520Z,33.88
2019-04-25T15:36:58.634Z,35.23
2019-04-25T15:39:41.784Z,34.83
2019-04-25T15:42:34.048Z,34.12
2019-04-25T15:45:17.013Z,34.05
2019-04-25T15:47:45.906Z,34.28
2019-04-25T15:50:17.924Z,34.60
2019-04-25T15:52:46.845Z,36.11
2019-04-25T15:55:15.519Z,34.70
2019-04-25T15:57:44.400Z,34.94
2019-04-25T16:00:20.767Z,34.39
2019-04-25T16:02:54.011Z,34.33
2019-04-25T16:05:26.453Z,34.43
2019-04-25T16:07:55.717Z,34.05
2019-04-25T16:10:26.346Z,33.95
2019-04-25T16:12:56.520Z,35.22
2019-04-25T16:15:25.280Z,32.20
2019-04-25T16:17:53.856Z,33.94
2019-04-25T16:20:24.810Z,31.98
2019-04-25T16:22:57.949Z,32.94
2019-04-25T16:25:29.823Z,34.30
2019-04-25T16:28:00.868Z,34.19
2019-04-25T16:30:32.446Z,32.78
2019-04-25T16:33:01.500Z,32.33
2019-04-25T16:35:35.454Z,33.06
2019-04-25T16:38:06.786Z,34.72
2019-04-25T16:40:37.601Z,32.58
2019-04-25T16:43:08.951Z,35.97
2019-04-25T16:45:39.503Z,37.80
2019-04-25T16:48:08.118Z,38.59
2019-04-25T16:50:42.094Z,39.10
2019-04-25T16:53:13.835Z,38.91
2019-04-25T16:55:42.407Z,39.45
2019-04-25T16:58:11.920Z,38.16
2019-04-25T17:00:47.762Z,40.15
2019-04-25T17:03:16.869Z,39.73
2019-04-25T17:05:48.914Z,39.96
2019-04-25T17:08:17.689Z,39.97
2019-04-25T17:10:46.281Z,40.47
2019-04-25T17:13:17.946Z,42.29
2019-04-25T17:16:07.488Z,41.27
2019-04-25T17:18:43.627Z,42.61
2019-04-25T17:21:14.047Z,42.81
2019-04-25T17:23:43.484Z,41.54
2019-04-25T17:26:14.477Z,41.32
2019-04-25T17:28:45.100Z,41.42
2019-04-25T17:31:27.752Z,43.12
2019-04-25T17:34:03.636Z,41.48
2019-04-25T17:36:58.602Z,42.39
2019-04-25T17:39:33.457Z,43.10
2019-04-25T17:42:04.480Z,42.74
2019-04-25T17:44:36.996Z,43.88
2019-04-25T17:47:08.546Z,45.16
2019-04-25T17:49:37.451Z,43.60
2019-04-25T17:52:13.602Z,42.52
2019-04-25T17:54:43.079Z,44.03
2019-04-25T17:57:14.507Z,44.36
2019-04-25T17:59:43.456Z,44.21
2019-04-25T18:02:13.097Z,44.29
2019-04-25T18:04:42.561Z,45.74
2019-04-25T18:07:30.357Z,48.62
2019-04-25T18:09:59.378Z,48.21
2019-04-25T18:12:28.009Z,51.48
2019-04-25T18:15:00.126Z,51.53
2019-04-25T18:17:32.428Z,53.00
2019-04-25T18:20:11.426Z,53.03
2019-04-25T18:22:58.658Z,53.00
2019-04-25T18:25:50.751Z,52.27
2019-04-25T18:28:28.956Z,51.55
2019-04-25T18:30:58.584Z,51.36
2019-04-25T18:33:30.646Z,52.57
2019-04-25T18:36:20.365Z,52.80
2019-04-25T18:38:59.313Z,52.36
2019-04-25T18:41:45.976Z,52.54
2019-04-25T18:44:14.709Z,53.10
2019-04-25T18:46:47.594Z,52.70
2019-04-25T18:49:16.508Z,52.76
2019-04-25T18:51:56.463Z,52.49
2019-04-25T18:54:29.767Z,52.71
2019-04-25T18:57:18.217Z,53.10
2019-04-25T19:00:08.304Z,53.27
2019-04-25T19:03:01.793Z,52.37
2019-04-25T19:05:41.116Z,53.26
2019-04-25T19:08:15.478Z,54.49
2019-04-25T19:10:47.588Z,55.87
2019-04-25T19:13:20.073Z,55.94
2019-04-25T19:15:48.938Z,55.82
2019-04-25T19:18:19.101Z,55.78
2019-04-25T19:20:48.116Z,56.29
2019-04-25T19:23:20.470Z,56.41
2019-04-25T19:25:49.431Z,57.07
2019-04-25T19:28:20.806Z,56.99
2019-04-25T19:30:50.213Z,57.37
2019-04-25T19:33:34.989Z,57.03
2019-04-25T19:35:55.493Z,57.79
2019-04-25T19:38:24.407Z,57.37
2019-04-25T19:41:09.422Z,57.65
2019-04-25T19:43:51.925Z,57.93
2019-04-25T19:46:38.382Z,58.45
2019-04-25T19:49:10.820Z,57.70
2019-04-25T19:51:41.779Z,57.58
2019-04-25T19:54:10.888Z,57.93
2019-04-25T19:56:39.796Z,57.80
2019-04-25T19:59:08.739Z,57.06
2019-04-25T20:01:38.710Z,57.90
2019-04-25T20:04:22.019Z,58.76
2019-04-25T20:07:08.225Z,59.31
2019-04-25T20:10:02.607Z,61.21
2019-04-25T20:12:40.149Z,60.85
2019-04-25T20:15:12.724Z,60.72
2019-04-25T20:17:47.612Z,58.99
2019-04-25T20:20:16.614Z,58.92
2019-04-25T20:22:48.147Z,58.81
2019-04-25T20:25:18.698Z,58.28
2019-04-25T20:27:50.857Z,58.32
2019-04-25T20:30:23.681Z,58.11
2019-04-25T20:32:53.553Z,57.96
2019-04-25T20:35:22.417Z,58.41
2019-04-25T20:37:53.473Z,58.02
2019-04-25T20:40:24.210Z,58.24
2019-04-25T20:42:55.242Z,59.58
2019-04-25T20:45:24.361Z,59.91
2019-04-25T20:47:56.981Z,59.71
2019-04-25T20:50:26.010Z,61.39
2019-04-25T20:52:55.546Z,62.36
2019-04-25T20:55:27.834Z,63.55
2019-04-25T20:57:56.440Z,63.74
2019-04-25T21:00:40.006Z,65.40
2019-04-25T21:03:10.152Z,64.88
2019-04-25T21:05:41.062Z,64.18
2019-04-25T21:08:13.173Z,65.03
2019-04-25T21:10:42.038Z,64.07
2019-04-25T21:13:21.868Z,64.85
2019-04-25T21:16:23.207Z,66.03
2019-04-25T21:19:02.529Z,65.55
2019-04-25T21:21:35.653Z,64.76
2019-04-25T21:24:04.584Z,64.26
2019-04-25T21:26:35.237Z,64.33
2019-04-25T21:29:04.525Z,64.00
2019-04-25T21:31:35.113Z,64.70
2019-04-25T21:34:04.237Z,63.26
2019-04-25T21:36:33.133Z,54.73
2019-04-25T21:39:07.388Z,49.57
2019-04-25T21:41:48.295Z,47.61
2019-04-25T21:44:17.800Z,45.60
2019-04-25T21:46:48.145Z,45.66
2019-04-25T21:49:25.902Z,46.08
2019-04-25T21:51:55.465Z,46.91
2019-04-25T21:54:26.041Z,47.74
2019-04-25T21:56:57.961Z,48.37
2019-04-25T21:59:26.846Z,49.20
2019-04-25T22:01:56.364Z,50.05
2019-04-25T22:04:38.933Z,50.60
2019-04-25T22:07:06.174Z,51.28
2019-04-25T22:09:37.415Z,52.02
2019-04-25T22:12:07.909Z,52.46
2019-04-25T22:14:38.727Z,52.96
2019-04-25T22:17:10.743Z,53.08
2019-04-25T22:19:42.869Z,53.01
2019-04-25T22:22:13.916Z,53.63
2019-04-25T22:24:43.514Z,53.84
2019-04-25T22:27:18.747Z,53.92
2019-04-25T22:29:57.166Z,53.93
2019-04-25T22:32:46.223Z,54.46
2019-04-25T22:35:23.074Z,54.93
2019-04-25T22:37:52.118Z,55.02
2019-04-25T22:40:24.725Z,55.71
2019-04-25T22:42:53.477Z,55.81
2019-04-25T22:45:25.086Z,56.08
2019-04-25T22:47:54.167Z,56.04
2019-04-25T22:50:23.351Z,56.10
2019-04-25T22:52:53.980Z,56.05
2019-04-25T22:55:22.940Z,56.50
2019-04-25T22:57:55.286Z,56.67
2019-04-25T23:00:32.789Z,57.09
2019-04-25T23:03:16.103Z,57.19
2019-04-25T23:05:49.135Z,57.33
2019-04-25T23:08:21.867Z,57.48
2019-04-25T23:10:54.659Z,57.22
2019-04-25T23:13:25.935Z,57.37
2019-04-25T23:15:55.442Z,57.52
2019-04-25T23:18:27.355Z,57.60
2019-04-25T23:20:56.509Z,57.85
2019-04-25T23:23:32.368Z,57.97
2019-04-25T23:26:23.071Z,58.19
2019-04-25T23:28:55.262Z,58.52
2019-04-25T23:31:29.390Z,59.35
2019-04-25T23:34:00.389Z,59.40
2019-04-25T23:36:29.488Z,60.04
2019-04-25T23:38:59.732Z,60.81
2019-04-25T23:41:30.879Z,61.37
2019-04-25T23:44:03.291Z,62.25
2019-04-25T23:46:32.939Z,61.93
2019-04-25T23:49:04.891Z,62.38
2019-04-25T23:51:34.963Z,62.18
2019-04-25T23:54:07.642Z,62.62
2019-04-25T23:56:37.265Z,63.97
2019-04-25T23:59:07.354Z,64.24
